createdAt,value
2017-11-10T00:01:59.261Z,100.73
2017-11-10T00:04:26.876Z,95.80
2017-11-10T00:06:54.403Z,99.17
2017-11-10T00:09:22.007Z,109.13
2017-11-10T00:11:49.538Z,102.50
2017-11-10T00:14:17.072Z,88.20
2017-11-10T00:16:44.662Z,82.40
2017-11-10T00:19:12.198Z,115.03
2017-11-10T00:21:39.742Z,79.87
2017-11-10T00:24:07.297Z,96.87
2017-11-10T00:26:34.829Z,97.60
2017-11-10T00:29:02.358Z,87.67
2017-11-10T00:31:29.946Z,95.30
2017-11-10T00:33:57.590Z,105.33
2017-11-10T00:36:25.085Z,85.17
2017-11-10T00:38:52.616Z,91.70
2017-11-10T00:41:20.105Z,93.10
2017-11-10T00:43:47.593Z,98.07
2017-11-10T00:46:15.160Z,130.87
2017-11-10T00:48:42.648Z,96.23
2017-11-10T00:51:10.147Z,95.67
2017-11-10T00:53:37.690Z,88.93
2017-11-10T00:56:05.192Z,80.67
2017-11-10T00:58:32.773Z,87.80
2017-11-10T01:01:00.293Z,115.33
2017-11-10T01:03:27.777Z,98.27
2017-11-10T01:05:55.327Z,119.20
2017-11-10T01:08:22.868Z,106.73
2017-11-10T01:10:50.354Z,83.63
2017-11-10T01:13:17.848Z,101.70
2017-11-10T01:15:45.384Z,121.50
2017-11-10T01:18:12.872Z,96.07
2017-11-10T01:20:40.357Z,98.37
2017-11-10T01:23:07.942Z,87.17
2017-11-10T01:25:35.432Z,90.53
2017-11-10T01:28:02.944Z,93.07
2017-11-10T01:30:30.468Z,94.67
2017-11-10T01:32:57.965Z,93.27
2017-11-10T01:35:25.532Z,100.63
2017-11-10T01:37:53.049Z,89.53
2017-11-10T01:40:20.644Z,92.07
2017-11-10T01:42:48.131Z,98.90
2017-11-10T01:45:17.449Z,80.47
2017-11-10T01:47:44.967Z,99.60
2017-11-10T01:50:12.473Z,94.03
2017-11-10T01:52:39.980Z,101.20
2017-11-10T01:55:07.541Z,111.63
2017-11-10T01:57:35.037Z,117.50
2017-11-10T02:00:02.533Z,95.53
2017-11-10T02:02:30.065Z,117.00
2017-11-10T02:04:57.556Z,90.70
2017-11-10T02:07:25.049Z,110.93
2017-11-10T02:09:52.584Z,111.13
2017-11-10T02:12:20.121Z,97.63
2017-11-10T02:14:47.626Z,113.63
2017-11-10T02:17:15.112Z,110.23
2017-11-10T02:19:42.651Z,102.57
2017-11-10T02:22:10.181Z,110.87
2017-11-10T02:24:37.736Z,99.27
2017-11-10T02:27:05.407Z,111.00
2017-11-10T02:29:32.907Z,101.40
2017-11-10T02:32:00.417Z,87.17
2017-11-10T02:34:27.952Z,94.73
2017-11-10T02:36:55.445Z,85.90
2017-11-10T02:39:27.981Z,88.77
2017-11-10T02:41:55.475Z,92.37
2017-11-10T02:44:22.971Z,91.60
2017-11-10T02:46:50.506Z,84.33
2017-11-10T02:49:17.997Z,86.63
2017-11-10T02:51:45.486Z,74.50
2017-11-10T02:54:13.028Z,75.00
2017-11-10T02:56:40.542Z,85.67
2017-11-10T02:59:08.037Z,85.27
2017-11-10T03:01:35.570Z,86.50
2017-11-10T03:04:03.066Z,77.17
2017-11-10T03:06:30.649Z,78.57
2017-11-10T03:08:58.198Z,86.43
2017-11-10T03:11:25.689Z,82.20
2017-11-10T03:13:53.179Z,78.10
2017-11-10T03:16:20.703Z,72.93
2017-11-10T03:18:48.189Z,68.77
2017-11-10T03:21:15.702Z,72.97
2017-11-10T03:23:43.357Z,82.83
2017-11-10T03:26:10.920Z,83.47
2017-11-10T03:28:38.415Z,61.47
2017-11-10T03:31:05.946Z,61.13
2017-11-10T03:33:33.502Z,80.17
2017-11-10T03:36:00.997Z,64.47
2017-11-10T03:38:28.626Z,56.87
2017-11-10T03:40:56.154Z,69.73
2017-11-10T03:43:23.646Z,75.33
2017-11-10T03:45:51.185Z,78.70
2017-11-10T03:48:18.683Z,79.77
2017-11-10T03:50:46.173Z,71.13
2017-11-10T03:53:13.697Z,76.90
2017-11-10T03:55:41.187Z,73.50
2017-11-10T03:58:08.784Z,64.87
2017-11-10T04:00:36.347Z,79.97
2017-11-10T04:03:03.905Z,59.33
2017-11-10T04:05:31.403Z,75.20
2017-11-10T04:07:59.024Z,55.97
2017-11-10T04:10:26.527Z,65.40
2017-11-10T04:12:54.026Z,66.10
2017-11-10T04:15:21.560Z,64.17
2017-11-10T04:17:49.069Z,66.73
2017-11-10T04:20:16.617Z,63.27
2017-11-10T04:22:44.152Z,56.33
2017-11-10T04:25:12.936Z,67.77
2017-11-10T04:27:40.424Z,60.37
2017-11-10T04:30:07.976Z,66.77
2017-11-10T04:32:35.471Z,61.30
2017-11-10T04:35:02.993Z,59.83
2017-11-10T04:37:30.522Z,69.00
2017-11-10T04:39:58.020Z,73.07
2017-11-10T04:42:25.572Z,58.23
2017-11-10T04:44:53.186Z,64.70
2017-11-10T04:47:20.787Z,78.37
2017-11-10T04:49:48.283Z,78.17
2017-11-10T04:52:15.840Z,67.50
2017-11-10T04:54:43.364Z,73.03
2017-11-10T04:57:10.852Z,77.43
2017-11-10T04:59:38.373Z,73.97
2017-11-10T05:02:05.864Z,72.97
2017-11-10T05:04:33.393Z,98.87
2017-11-10T05:07:00.917Z,64.83
2017-11-10T05:09:28.432Z,73.03
2017-11-10T05:11:55.924Z,100.17
2017-11-10T05:14:23.452Z,88.37
2017-11-10T05:16:50.962Z,78.80
2017-11-10T05:19:18.579Z,72.70
2017-11-10T05:21:46.313Z,85.03
2017-11-10T05:24:13.805Z,92.73
2017-11-10T05:26:41.299Z,97.60
2017-11-10T05:29:08.839Z,77.83
2017-11-10T05:31:36.329Z,98.03
2017-11-10T05:34:03.835Z,87.80
2017-11-10T05:36:31.374Z,83.33
2017-11-10T05:38:58.868Z,77.80
2017-11-10T05:41:26.367Z,74.37
2017-11-10T05:43:53.921Z,73.73
2017-11-10T05:46:21.414Z,82.87
2017-11-10T05:48:48.905Z,90.87
2017-11-10T05:51:16.448Z,78.30
2017-11-10T05:53:43.941Z,86.23
2017-11-10T05:56:11.433Z,71.70
2017-11-10T05:58:38.949Z,106.40
2017-11-10T06:01:07.248Z,77.17
2017-11-10T06:03:34.786Z,70.60
2017-11-10T06:06:02.280Z,77.93
2017-11-10T06:08:29.773Z,68.50
2017-11-10T06:10:57.306Z,73.23
2017-11-10T06:13:24.798Z,75.27
2017-11-10T06:15:52.305Z,77.57
2017-11-10T06:18:19.974Z,75.97
2017-11-10T06:20:47.479Z,80.90
2017-11-10T06:23:14.987Z,83.13
2017-11-10T06:25:42.542Z,73.73
2017-11-10T06:28:10.060Z,90.20
2017-11-10T06:30:37.585Z,80.70
2017-11-10T06:33:05.102Z,77.20
2017-11-10T06:35:32.690Z,76.07
2017-11-10T06:38:00.349Z,167.00
2017-11-10T06:40:27.907Z,76.63
2017-11-10T06:42:55.402Z,73.60
2017-11-10T06:45:22.950Z,76.57
2017-11-10T06:47:50.443Z,84.83
2017-11-10T06:50:17.951Z,75.97
2017-11-10T06:52:45.488Z,73.30
2017-11-10T06:55:12.977Z,86.87
2017-11-10T06:57:40.534Z,68.80
2017-11-10T07:00:08.053Z,75.60
2017-11-10T07:02:35.548Z,80.20
2017-11-10T07:05:03.048Z,68.67
2017-11-10T07:07:30.670Z,75.90
2017-11-10T07:09:58.229Z,70.47
2017-11-10T07:12:25.726Z,70.80
2017-11-10T07:14:53.266Z,71.40
2017-11-10T07:17:20.847Z,77.40
2017-11-10T07:19:48.344Z,70.30
2017-11-10T07:22:15.898Z,72.53
2017-11-10T07:24:43.481Z,78.73
2017-11-10T07:27:10.970Z,61.87
2017-11-10T07:29:38.585Z,70.03
2017-11-10T07:32:06.072Z,68.70
2017-11-10T07:34:33.805Z,77.00
2017-11-10T07:37:01.300Z,73.53
2017-11-10T07:39:28.818Z,63.23
2017-11-10T07:41:56.352Z,66.50
2017-11-10T07:44:23.940Z,73.63
2017-11-10T07:46:51.451Z,70.03
2017-11-10T07:49:19.164Z,61.90
2017-11-10T07:51:46.676Z,64.97
2017-11-10T07:54:14.164Z,69.37
2017-11-10T07:56:41.848Z,75.90
2017-11-10T07:59:09.336Z,62.27
2017-11-10T08:01:36.849Z,109.80
2017-11-10T08:04:04.433Z,78.87
2017-11-10T08:06:31.937Z,106.20
2017-11-10T08:08:59.432Z,70.63
2017-11-10T08:11:26.972Z,78.30
2017-11-10T08:13:54.470Z,77.17
2017-11-10T08:16:21.969Z,81.70
2017-11-10T08:18:49.510Z,83.53
2017-11-10T08:21:17.011Z,71.53
2017-11-10T08:23:44.587Z,79.27
2017-11-10T08:26:12.141Z,61.83
2017-11-10T08:28:39.687Z,71.73
2017-11-10T08:31:07.187Z,61.07
2017-11-10T08:33:34.678Z,60.17
2017-11-10T08:36:02.192Z,51.90
2017-11-10T08:38:29.687Z,62.93
2017-11-10T08:40:57.187Z,71.20
2017-11-10T08:43:24.753Z,62.30
2017-11-10T08:45:52.326Z,53.43
2017-11-10T08:48:19.874Z,54.23
2017-11-10T08:50:47.533Z,55.73
2017-11-10T08:53:15.028Z,58.90
2017-11-10T08:55:42.514Z,49.23
2017-11-10T08:58:10.198Z,49.67
2017-11-10T09:00:37.695Z,44.40
2017-11-10T09:03:05.209Z,50.17
2017-11-10T09:05:32.735Z,52.40
2017-11-10T09:08:00.221Z,51.33
2017-11-10T09:10:27.716Z,49.57
2017-11-10T09:12:55.356Z,55.40
2017-11-10T09:15:22.852Z,48.23
2017-11-10T09:17:50.392Z,80.33
2017-11-10T09:20:17.936Z,52.10
2017-11-10T09:22:45.463Z,54.00
2017-11-10T09:25:12.974Z,48.77
2017-11-10T09:27:40.514Z,62.33
2017-11-10T09:30:18.512Z,44.73
2017-11-10T09:32:47.973Z,52.97
2017-11-10T09:35:21.069Z,52.80
2017-11-10T09:37:54.419Z,51.90
2017-11-10T09:40:27.634Z,51.37
2017-11-10T09:46:22.823Z,44.77
2017-11-10T09:48:56.000Z,62.27
2017-11-10T09:51:29.205Z,42.40
2017-11-10T09:54:02.399Z,47.70
2017-11-10T09:59:37.384Z,80.17
2017-11-10T10:02:14.810Z,40.13
2017-11-10T10:04:42.340Z,37.40
2017-11-10T10:07:11.329Z,41.73
2017-11-10T10:09:40.607Z,46.53
2017-11-10T10:12:13.880Z,39.57
2017-11-10T10:14:43.302Z,47.10
2017-11-10T10:17:12.757Z,39.10
2017-11-10T10:19:45.999Z,41.50
2017-11-10T10:22:14.297Z,35.77
2017-11-10T10:24:41.806Z,35.10
2017-11-10T10:27:09.341Z,39.50
2017-11-10T10:29:36.829Z,40.33
2017-11-10T10:32:04.323Z,38.93
2017-11-10T10:34:31.869Z,29.87
2017-11-10T10:36:59.361Z,43.07
2017-11-10T10:39:26.864Z,33.80
2017-11-10T10:41:54.430Z,38.77
2017-11-10T10:44:21.938Z,29.90
2017-11-10T10:46:49.443Z,33.60
2017-11-10T10:49:16.991Z,28.50
2017-11-10T10:51:44.561Z,29.27
2017-11-10T10:54:12.117Z,29.00
2017-11-10T10:56:39.663Z,30.40
2017-11-10T10:59:07.157Z,34.10
2017-11-10T11:01:34.692Z,34.27
2017-11-10T11:04:02.237Z,31.90
2017-11-10T11:06:29.736Z,29.17
2017-11-10T11:08:57.230Z,39.07
2017-11-10T11:11:24.783Z,32.17
2017-11-10T11:13:52.272Z,33.73
2017-11-10T11:16:19.858Z,31.13
2017-11-10T11:18:47.394Z,29.27
2017-11-10T11:21:14.877Z,30.93
2017-11-10T11:23:42.378Z,28.50
2017-11-10T11:26:09.981Z,65.33
2017-11-10T11:28:37.480Z,24.80
2017-11-10T11:31:04.993Z,47.33
2017-11-10T11:33:32.550Z,58.50
2017-11-10T11:36:00.231Z,28.17
2017-11-10T11:38:27.725Z,23.30
2017-11-10T11:40:55.252Z,26.67
2017-11-10T11:43:22.772Z,34.43
2017-11-10T11:45:50.381Z,24.67
2017-11-10T11:48:17.942Z,76.73
2017-11-10T11:50:45.490Z,19.40
2017-11-10T11:53:12.985Z,72.27
2017-11-10T11:55:40.505Z,28.27
2017-11-10T11:58:08.057Z,49.13
2017-11-10T12:00:35.618Z,28.70
2017-11-10T12:03:03.169Z,24.70
2017-11-10T12:05:30.738Z,30.23
2017-11-10T12:07:58.236Z,19.93
2017-11-10T12:10:25.729Z,30.67
2017-11-10T12:12:53.301Z,24.03
2017-11-10T12:15:20.805Z,21.40
2017-11-10T12:17:48.298Z,25.10
2017-11-10T12:20:15.883Z,20.60
2017-11-10T12:22:43.373Z,23.60
2017-11-10T12:25:10.896Z,30.73
2017-11-10T12:27:38.466Z,29.93
2017-11-10T12:30:05.961Z,23.13
2017-11-10T12:32:33.477Z,33.10
2017-11-10T12:35:01.141Z,23.33
2017-11-10T12:37:28.637Z,22.43
2017-11-10T12:39:56.285Z,21.50
2017-11-10T12:42:23.825Z,28.83
2017-11-10T12:44:51.385Z,25.70
2017-11-10T12:47:18.876Z,27.13
2017-11-10T12:49:46.396Z,25.87
2017-11-10T12:52:13.893Z,23.97
2017-11-10T12:54:41.376Z,23.67
2017-11-10T12:57:08.944Z,26.27
2017-11-10T12:59:36.433Z,32.90
2017-11-10T13:02:03.922Z,28.50
2017-11-10T13:04:31.571Z,31.30
2017-11-10T13:06:59.063Z,27.60
2017-11-10T13:09:26.552Z,31.83
2017-11-10T13:11:54.120Z,37.67
2017-11-10T13:14:21.614Z,28.30
2017-11-10T13:16:49.136Z,27.73
2017-11-10T13:19:16.674Z,26.47
2017-11-10T13:21:44.176Z,35.27
2017-11-10T13:24:11.670Z,29.87
2017-11-10T13:26:39.192Z,27.57
2017-11-10T13:29:06.688Z,21.70
2017-11-10T13:31:34.293Z,24.33
2017-11-10T13:34:01.805Z,28.90
2017-11-10T13:36:29.306Z,26.20
2017-11-10T13:38:56.883Z,24.50
2017-11-10T13:41:24.376Z,24.50
2017-11-10T13:43:51.865Z,20.43
2017-11-10T13:46:19.400Z,23.03
2017-11-10T13:48:46.916Z,18.03
2017-11-10T13:51:14.404Z,27.00
2017-11-10T13:53:41.939Z,18.90
2017-11-10T13:56:09.440Z,17.50
2017-11-10T13:58:36.928Z,18.13
2017-11-10T14:01:04.587Z,29.37
2017-11-10T14:03:32.085Z,15.90
2017-11-10T14:05:59.593Z,22.83
2017-11-10T14:08:27.170Z,18.30
2017-11-10T14:10:54.670Z,17.03
2017-11-10T14:13:22.382Z,18.03
2017-11-10T14:15:49.885Z,19.50
2017-11-10T14:18:17.383Z,18.90
2017-11-10T14:20:44.931Z,19.77
2017-11-10T14:23:12.434Z,15.20
2017-11-10T14:25:39.924Z,15.63
2017-11-10T14:28:07.451Z,41.50
2017-11-10T14:30:34.946Z,18.20
2017-11-10T14:33:02.433Z,16.97
2017-11-10T14:35:29.978Z,21.50
2017-11-10T14:37:57.469Z,17.60
2017-11-10T14:40:24.959Z,17.20
2017-11-10T14:42:52.468Z,18.30
2017-11-10T14:45:20.017Z,20.00
2017-11-10T14:47:47.607Z,17.10
2017-11-10T14:50:15.110Z,17.70
2017-11-10T14:52:42.654Z,18.93
2017-11-10T14:55:10.152Z,24.07
2017-11-10T14:57:37.641Z,18.23
2017-11-10T15:00:05.288Z,21.53
2017-11-10T15:02:32.781Z,15.30
2017-11-10T15:05:00.312Z,19.73
2017-11-10T15:07:27.835Z,17.53
2017-11-10T15:09:55.328Z,17.90
2017-11-10T15:12:22.825Z,20.80
2017-11-10T15:14:50.343Z,14.20
2017-11-10T15:17:17.836Z,19.53
2017-11-10T15:19:45.465Z,19.00
2017-11-10T15:22:12.956Z,18.60
2017-11-10T15:24:40.458Z,25.47
2017-11-10T15:27:07.990Z,20.70
2017-11-10T15:29:35.489Z,20.20
2017-11-10T15:32:02.978Z,16.30
2017-11-10T15:34:30.513Z,20.90
2017-11-10T15:36:58.075Z,16.60
2017-11-10T15:39:25.574Z,19.87
2017-11-10T15:41:53.289Z,17.90
2017-11-10T15:44:20.810Z,14.53
2017-11-10T15:46:48.301Z,18.13
2017-11-10T15:49:15.896Z,17.10
2017-11-10T15:51:43.398Z,21.17
2017-11-10T15:54:10.905Z,19.80
2017-11-10T15:56:38.456Z,17.27
2017-11-10T15:59:05.954Z,14.13
2017-11-10T16:01:33.489Z,13.93
2017-11-10T16:04:01.134Z,20.70
2017-11-10T16:06:28.625Z,16.37
2017-11-10T16:08:56.124Z,13.67
2017-11-10T16:11:23.656Z,13.60
2017-11-10T16:13:51.161Z,13.67
2017-11-10T16:16:18.659Z,11.03
2017-11-10T16:18:46.196Z,21.37
2017-11-10T16:21:13.740Z,11.63
2017-11-10T16:23:41.236Z,12.77
2017-11-10T16:26:08.766Z,16.83
2017-11-10T16:28:36.249Z,12.67
2017-11-10T16:31:03.741Z,15.63
2017-11-10T16:33:31.271Z,15.50
2017-11-10T16:35:58.755Z,19.27
2017-11-10T16:38:26.253Z,14.57
2017-11-10T16:40:53.779Z,13.13
2017-11-10T16:43:21.273Z,10.80
2017-11-10T16:45:48.763Z,18.77
2017-11-10T16:48:16.299Z,11.40
2017-11-10T16:50:43.793Z,11.27
2017-11-10T16:53:11.277Z,19.13
2017-11-10T16:55:38.793Z,12.53
2017-11-10T16:58:06.282Z,11.17
2017-11-10T17:00:33.868Z,13.37
2017-11-10T17:03:01.418Z,14.27
2017-11-10T17:05:28.911Z,11.70
2017-11-10T17:07:56.438Z,12.83
2017-11-10T17:10:24.022Z,9.53
2017-11-10T17:12:51.589Z,10.77
2017-11-10T17:15:19.065Z,11.27
2017-11-10T17:17:46.782Z,9.90
2017-11-10T17:20:14.258Z,11.13
2017-11-10T17:22:41.796Z,9.30
2017-11-10T17:25:09.357Z,14.43
2017-11-10T17:27:36.847Z,10.10
2017-11-10T17:30:04.347Z,17.77
2017-11-10T17:32:31.868Z,11.20
2017-11-10T17:34:59.412Z,15.97
2017-11-10T17:37:26.957Z,17.07
2017-11-10T17:39:54.497Z,12.60
2017-11-10T17:42:21.999Z,17.00
2017-11-10T17:44:49.528Z,10.93
2017-11-10T17:47:17.058Z,12.60
2017-11-10T17:49:44.550Z,8.87
2017-11-10T17:52:12.040Z,8.17
2017-11-10T17:54:39.577Z,7.80
2017-11-10T17:57:07.066Z,7.20
2017-11-10T17:59:34.554Z,10.67
2017-11-10T18:02:02.154Z,8.53
2017-11-10T18:04:29.675Z,5.07
2017-11-10T18:06:57.162Z,3.53
2017-11-10T18:09:24.690Z,5.40
2017-11-10T18:11:52.182Z,14.03
2017-11-10T18:14:19.669Z,12.83
2017-11-10T18:16:47.202Z,12.07
2017-11-10T18:19:14.694Z,6.40
2017-11-10T18:21:42.179Z,5.00
2017-11-10T18:24:09.693Z,6.80
2017-11-10T18:26:37.189Z,8.00
2017-11-10T18:29:04.784Z,12.03
2017-11-10T18:31:32.332Z,8.97
2017-11-10T18:33:59.888Z,7.63
2017-11-10T18:36:27.368Z,12.57
2017-11-10T18:38:54.962Z,10.10
2017-11-10T18:41:22.485Z,11.90
2017-11-10T18:43:50.028Z,8.47
2017-11-10T18:46:17.553Z,14.30
2017-11-10T18:48:45.985Z,7.70
2017-11-10T18:51:13.482Z,11.30
2017-11-10T18:53:41.768Z,12.60
2017-11-10T18:56:09.310Z,4.63
2017-11-10T18:58:36.808Z,9.43
2017-11-10T19:01:04.396Z,8.17
2017-11-10T19:03:31.922Z,8.53
2017-11-10T19:05:59.514Z,11.13
2017-11-10T19:08:26.999Z,5.90
2017-11-10T19:10:54.544Z,8.97
2017-11-10T19:13:22.031Z,11.80
2017-11-10T19:15:49.629Z,15.73
2017-11-10T19:18:17.162Z,16.83
2017-11-10T19:20:44.648Z,23.77
2017-11-10T19:23:12.136Z,16.73
2017-11-10T19:25:39.761Z,7.50
2017-11-10T19:28:07.254Z,9.77
2017-11-10T19:30:34.779Z,10.40
2017-11-10T19:33:02.300Z,14.60
2017-11-10T19:35:29.791Z,15.73
2017-11-10T19:37:57.477Z,13.20
2017-11-10T19:40:25.058Z,13.33
2017-11-10T19:42:52.615Z,15.63
2017-11-10T19:45:20.162Z,16.03
2017-11-10T19:47:47.815Z,14.70
2017-11-10T19:50:15.377Z,12.30
2017-11-10T19:52:42.947Z,26.57
2017-11-10T19:55:10.659Z,22.63
2017-11-10T19:57:38.465Z,6.90
2017-11-10T20:00:06.230Z,6.03
2017-11-10T20:02:34.097Z,18.43
2017-11-10T20:05:01.944Z,13.80
2017-11-10T20:07:29.725Z,14.63
2017-11-10T20:09:57.452Z,10.33
2017-11-10T20:12:25.254Z,13.33
2017-11-10T20:14:53.249Z,10.13
2017-11-10T20:17:21.088Z,5.90
2017-11-10T20:19:48.943Z,11.10
2017-11-10T20:22:16.718Z,10.87
2017-11-10T20:24:44.484Z,5.67
2017-11-10T20:27:12.087Z,19.13
2017-11-10T20:29:39.710Z,11.73
2017-11-10T20:32:07.280Z,8.47
2017-11-10T20:34:34.880Z,9.10
2017-11-10T20:37:02.386Z,19.33
2017-11-10T20:39:30.025Z,15.10
2017-11-10T20:41:57.603Z,11.60
2017-11-10T20:44:25.145Z,12.40
2017-11-10T20:46:52.733Z,26.13
2017-11-10T20:49:20.247Z,11.07
2017-11-10T20:51:47.841Z,19.63
2017-11-10T20:54:15.436Z,9.33
2017-11-10T20:56:42.941Z,13.27
2017-11-10T20:59:10.452Z,25.13
2017-11-10T21:01:38.010Z,17.80
2017-11-10T21:04:05.583Z,15.13
2017-11-10T21:06:33.145Z,10.50
2017-11-10T21:09:00.687Z,21.07
2017-11-10T21:11:28.212Z,21.30
2017-11-10T21:13:55.697Z,7.53
2017-11-10T21:16:23.305Z,9.67
2017-11-10T21:18:50.797Z,25.83
2017-11-10T21:21:18.276Z,9.43
2017-11-10T21:23:45.880Z,21.87
2017-11-10T21:26:13.452Z,21.87
2017-11-10T21:28:40.945Z,23.03
2017-11-10T21:31:08.555Z,20.33
2017-11-10T21:33:36.140Z,12.17
2017-11-10T21:36:03.707Z,15.17
2017-11-10T21:38:31.226Z,14.37
2017-11-10T21:40:58.815Z,14.57
2017-11-10T21:43:26.452Z,16.63
2017-11-10T21:45:53.943Z,8.90
2017-11-10T21:48:21.433Z,27.03
2017-11-10T21:50:49.303Z,18.00
2017-11-10T21:53:16.908Z,15.30
2017-11-10T21:55:44.406Z,25.87
2017-11-10T21:58:11.933Z,26.07
2017-11-10T22:00:39.421Z,14.00
2017-11-10T22:03:06.913Z,50.23
2017-11-10T22:05:34.454Z,20.47
2017-11-10T22:08:01.937Z,16.70
2017-11-10T22:10:29.426Z,34.33
2017-11-10T22:12:57.000Z,21.03
2017-11-10T22:15:24.476Z,10.60
2017-11-10T22:17:52.009Z,50.43
2017-11-10T22:20:19.492Z,15.10
2017-11-10T22:22:46.989Z,12.60
2017-11-10T22:25:14.523Z,11.40
2017-11-10T22:27:42.010Z,13.57
2017-11-10T22:30:09.494Z,15.47
2017-11-10T22:32:37.029Z,18.93
2017-11-10T22:35:04.518Z,18.23
2017-11-10T22:37:32.021Z,21.33
2017-11-10T22:39:59.561Z,10.57
2017-11-10T22:42:27.036Z,7.10
2017-11-10T22:44:54.519Z,12.53
2017-11-10T22:47:22.084Z,6.50
2017-11-10T22:49:49.561Z,5.53
2017-11-10T22:52:17.046Z,12.23
2017-11-10T22:54:44.565Z,3.80
2017-11-10T22:57:12.054Z,4.80
2017-11-10T22:59:39.679Z,9.97
2017-11-10T23:02:07.236Z,20.40
2017-11-10T23:04:34.779Z,11.60
2017-11-10T23:07:02.349Z,13.43
2017-11-10T23:09:29.831Z,4.83
2017-11-10T23:11:57.372Z,3.40
2017-11-10T23:14:24.852Z,7.97
2017-11-10T23:16:52.389Z,13.17
2017-11-10T23:19:19.901Z,23.03
2017-11-10T23:21:47.402Z,13.60
2017-11-10T23:24:14.919Z,13.90
2017-11-10T23:26:42.411Z,13.87
2017-11-10T23:29:09.893Z,4.00
2017-11-10T23:31:37.432Z,3.40
2017-11-10T23:34:04.921Z,5.60
2017-11-10T23:36:32.396Z,6.90
2017-11-10T23:39:00.024Z,33.40
2017-11-10T23:41:27.521Z,10.23
2017-11-10T23:43:55.000Z,11.73
2017-11-10T23:46:22.589Z,12.43
2017-11-10T23:48:50.065Z,9.83
2017-11-10T23:51:17.554Z,24.83
2017-11-10T23:53:45.056Z,7.80
2017-11-10T23:56:12.616Z,5.53
2017-11-10T23:58:41.196Z,7.63
